KTOI/TOI METAR and TAF weather

Enter ICAO airport designator
Station Type Date Time Source
KTOI METAR 2019/12/06 08:53 UTC NOAA

KTOI 060853Z AUTO 00000KT 10SM SCT120 05/04 A3016 RMK AO2 SLP211 T00500039 58005 $


Station Type Date Time Source
KTOI Decoded METAR 2019/12/06 08:53 UTC NOAA

TROY MUNICIPAL AIRPORT, AL, United States (KTOI) 31-52N 086-01W 118M
Dec 06, 2019 - 03:53 AM EST / 2019.12.06 0853 UTC
Wind: Calm:0
Visibility: 10 mile(s):0
Sky conditions: partly cloudy
Temperature: 41.0 F (5.0 C)
Dew Point: 39.0 F (3.9 C)
Relative Humidity: 92%
Pressure (altimeter): 30.16 in. Hg (1021 hPa)
Pressure tendency: 0.01 inches (0.5 hPa) lower than three hours ago
ob: KTOI 060853Z AUTO 00000KT 10SM SCT120 05/04 A3016 RMK AO2 SLP211 T00500039 58005
cycle: 9

Station Type Date Time Source
KTOI TAF 2019/12/06 06:39 UTC NOAA

TAF KTOI 060536Z 0606/0706 00000KT P6SM BKN200
FM061600 16006KT P6SM BKN100
FM061800 18006KT P6SM VCSH BKN100
FM062100 VRB04KT 6SM SHRA BKN070
FM062200 VRB04KT P6SM VCSH BKN060
FM070400 00000KT P6SM VCSH BKN026

Example: see airport list